New Castle, Delaware
Current Conditions -  °F | °C
As of 7:51 AM on Sunday 23 Nov 2014 (Local Time) from KILG Reporting Station
Clear Clear  
Wind Chill: 32°   Ceiling: Unl
Heat Index: 37°   Visibility: 10mi
Dew Point: 26°   Wind: 7mph
Humidity: 65%   Direction: 180°S
Pressure: 30.26"   Gusts: NA
Location:  39.67°N, 75.57°W
Report Text: KILG 231251Z AUTO 18006KT 10SM CLR 03/M03 A3026 RMK AO2 SLP246 T00281033
Loading
Personal Weather Stations






























Interactive Weather Map New forecast layout! Learn more

10-Day Weather Forecast

Advertisements
Track Severe Weather on mobile